createdAt,value
2023-04-30T00:04:13.214Z,110.60
2023-04-30T00:09:12.355Z,121.60
2023-04-30T00:14:10.470Z,138.00
2023-04-30T00:19:10.616Z,123.90
2023-04-30T00:24:09.745Z,400.30
2023-04-30T00:29:08.884Z,196.90
2023-04-30T00:34:08.208Z,145.90
2023-04-30T00:39:08.570Z,153.10
2023-04-30T00:44:06.789Z,236.60
2023-04-30T00:49:06.003Z,111.50
2023-04-30T00:54:05.284Z,130.50
2023-04-30T00:59:04.576Z,108.60
2023-04-30T01:04:03.888Z,90.80
2023-04-30T01:09:03.164Z,73.90
2023-04-30T01:14:04.486Z,65.40
2023-04-30T01:19:01.822Z,81.90
2023-04-30T01:24:01.067Z,93.50
2023-04-30T01:29:00.306Z,50.20
2023-04-30T01:34:00.569Z,71.20
2023-04-30T01:38:58.857Z,62.70
2023-04-30T01:43:59.132Z,50.40
2023-04-30T01:48:58.377Z,91.30
2023-04-30T01:53:58.638Z,47.90
2023-04-30T01:58:56.907Z,48.70
2023-04-30T02:03:55.250Z,37.40
2023-04-30T02:08:54.371Z,38.80
2023-04-30T02:13:54.651Z,32.50
2023-04-30T02:18:53.931Z,35.80
2023-04-30T02:23:52.224Z,44.00
2023-04-30T02:28:51.518Z,28.20
2023-04-30T02:33:51.842Z,37.80
2023-04-30T02:38:51.147Z,30.20
2023-04-30T02:43:50.438Z,33.10
2023-04-30T02:48:49.696Z,35.10
2023-04-30T02:53:49.993Z,22.50
2023-04-30T02:58:48.286Z,21.20
2023-04-30T03:03:46.628Z,21.40
2023-04-30T03:08:45.873Z,23.30
2023-04-30T03:13:46.145Z,19.90
2023-04-30T03:18:44.418Z,19.60
2023-04-30T03:23:43.693Z,20.10
2023-04-30T03:28:42.951Z,18.70
2023-04-30T03:33:43.364Z,18.00
2023-04-30T03:38:41.438Z,14.70
2023-04-30T03:43:41.687Z,15.30
2023-04-30T03:48:41.967Z,14.20
2023-04-30T03:53:39.216Z,13.00
2023-04-30T03:58:39.463Z,18.30
2023-04-30T04:03:37.788Z,13.30
2023-04-30T04:08:36.951Z,12.50
2023-04-30T04:13:36.206Z,13.20
2023-04-30T04:18:35.453Z,10.70
2023-04-30T04:23:36.700Z,13.10
2023-04-30T04:28:34.944Z,10.30
2023-04-30T04:33:33.200Z,11.10
2023-04-30T04:38:32.471Z,11.30
2023-04-30T04:43:32.722Z,11.00
2023-04-30T04:48:30.986Z,9.60
2023-04-30T04:53:34.266Z,9.60
2023-04-30T04:58:29.468Z,8.60
2023-04-30T05:03:28.779Z,10.30
2023-04-30T05:08:30.070Z,8.90
2023-04-30T05:13:28.313Z,9.90
2023-04-30T05:18:26.582Z,8.80
2023-04-30T05:23:25.828Z,8.60
2023-04-30T05:28:26.088Z,8.30
2023-04-30T05:33:25.361Z,6.80
2023-04-30T05:38:23.613Z,7.30
2023-04-30T05:43:23.915Z,7.40
2023-04-30T05:48:22.176Z,7.40
2023-04-30T05:53:22.442Z,6.70
2023-04-30T05:58:20.702Z,7.20
2023-04-30T06:03:21.036Z,7.90
2023-04-30T06:08:19.294Z,6.00
2023-04-30T06:13:18.566Z,6.70
2023-04-30T06:18:17.835Z,6.00
2023-04-30T06:23:17.099Z,5.50
2023-04-30T06:28:17.359Z,6.60
2023-04-30T06:33:16.629Z,5.90
2023-04-30T06:38:15.875Z,6.70
2023-04-30T06:43:15.140Z,6.50
2023-04-30T06:48:14.397Z,6.40
2023-04-30T06:53:13.689Z,6.50
2023-04-30T06:58:11.935Z,6.40
2023-04-30T07:03:11.284Z,5.30
2023-04-30T07:08:10.415Z,5.90
2023-04-30T07:13:11.773Z,4.50
2023-04-30T07:18:08.887Z,6.40
2023-04-30T07:23:08.176Z,6.80
2023-04-30T07:28:08.471Z,7.00
2023-04-30T07:33:08.845Z,5.20
2023-04-30T07:38:06.929Z,5.80
2023-04-30T07:43:05.276Z,6.70
2023-04-30T07:48:05.418Z,6.40
2023-04-30T07:53:03.683Z,5.80
2023-04-30T07:58:04.009Z,6.60
2023-04-30T08:03:02.372Z,5.70
2023-04-30T08:08:02.477Z,7.10
2023-04-30T08:13:01.740Z,6.40
2023-04-30T08:18:00.044Z,6.10
2023-04-30T08:23:00.327Z,6.30
2023-04-30T08:27:58.579Z,5.90
2023-04-30T08:32:58.001Z,5.50
2023-04-30T08:37:57.067Z,5.80
2023-04-30T08:42:56.325Z,5.70
2023-04-30T08:47:56.642Z,5.90
2023-04-30T08:52:56.920Z,6.10
2023-04-30T08:57:56.177Z,6.00
2023-04-30T09:02:54.643Z,5.20
2023-04-30T09:08:03.084Z,5.10
2023-04-30T09:12:52.279Z,5.00
2023-04-30T09:17:51.351Z,5.60
2023-04-30T09:22:50.621Z,4.50
2023-04-30T09:27:51.038Z,4.50
2023-04-30T09:32:48.148Z,5.40
2023-04-30T09:37:48.438Z,5.40
2023-04-30T09:42:47.743Z,5.10
2023-04-30T09:47:47.022Z,5.20
2023-04-30T09:52:47.333Z,4.30
2023-04-30T09:57:45.660Z,4.80
2023-04-30T10:02:46.754Z,5.60
2023-04-30T10:07:46.022Z,5.80
2023-04-30T10:12:44.302Z,4.20
2023-04-30T10:17:43.645Z,5.80
2023-04-30T10:22:42.897Z,4.10
2023-04-30T10:27:42.175Z,4.40
2023-04-30T10:32:40.457Z,4.00
2023-04-30T10:37:40.737Z,3.60
2023-04-30T10:42:40.101Z,4.30
2023-04-30T10:47:38.209Z,4.10
2023-04-30T10:52:37.462Z,3.10
2023-04-30T10:57:37.734Z,3.10
2023-04-30T11:02:36.044Z,3.20
2023-04-30T11:07:35.312Z,3.00
2023-04-30T11:12:34.571Z,3.50
2023-04-30T11:17:33.909Z,3.10
2023-04-30T11:22:33.985Z,2.70
2023-04-30T11:27:32.270Z,3.70
2023-04-30T11:32:32.579Z,3.60
2023-04-30T11:37:32.815Z,3.30
2023-04-30T11:42:31.061Z,3.40
2023-04-30T11:47:29.394Z,2.10
2023-04-30T11:52:28.628Z,2.60
2023-04-30T11:57:27.922Z,3.00
2023-04-30T12:02:27.235Z,2.80
2023-04-30T12:07:27.322Z,2.60
2023-04-30T12:12:26.585Z,3.50
2023-04-30T12:17:25.901Z,3.50
2023-04-30T12:22:24.186Z,4.40
2023-04-30T12:27:23.490Z,2.50
2023-04-30T12:32:22.913Z,2.40
2023-04-30T12:37:35.036Z,3.00
2023-04-30T12:42:21.238Z,2.20
2023-04-30T12:47:22.523Z,3.10
2023-04-30T12:52:20.817Z,2.80
2023-04-30T12:57:19.088Z,2.10
2023-04-30T13:02:19.449Z,2.20
2023-04-30T13:07:17.533Z,2.30
2023-04-30T13:12:16.802Z,2.20
2023-04-30T13:17:16.071Z,3.20
2023-04-30T13:22:16.376Z,2.20
2023-04-30T13:27:15.670Z,2.50
2023-04-30T13:32:13.944Z,3.00
2023-04-30T13:37:13.217Z,195.20
2023-04-30T13:42:13.474Z,101.00
2023-04-30T13:47:12.016Z,204.60
2023-04-30T13:52:10.980Z,216.00
2023-04-30T13:57:10.269Z,109.20
2023-04-30T14:02:10.570Z,74.30
2023-04-30T14:07:08.844Z,49.40
2023-04-30T14:12:09.219Z,32.50
2023-04-30T14:17:08.270Z,21.30
2023-04-30T14:22:07.572Z,19.00
2023-04-30T14:27:05.854Z,194.40
2023-04-30T14:32:05.237Z,78.70
2023-04-30T14:37:04.384Z,154.80
2023-04-30T14:42:03.494Z,200.60
2023-04-30T14:47:03.776Z,103.00
2023-04-30T14:52:02.071Z,65.00
2023-04-30T14:57:03.370Z,58.80
2023-04-30T15:02:01.642Z,47.70
2023-04-30T15:07:00.918Z,48.50
2023-04-30T15:11:59.170Z,32.00
2023-04-30T15:16:58.416Z,25.80
2023-04-30T15:21:58.691Z,18.80
2023-04-30T15:26:56.929Z,19.60
2023-04-30T15:31:56.387Z,13.20
2023-04-30T15:36:56.426Z,14.00
2023-04-30T15:41:55.728Z,12.90
2023-04-30T15:46:53.021Z,11.00
2023-04-30T15:51:53.350Z,7.60
2023-04-30T15:56:53.642Z,7.70
2023-04-30T16:01:51.039Z,6.30
2023-04-30T16:06:51.744Z,5.00
2023-04-30T16:11:51.373Z,4.70
2023-04-30T16:16:50.715Z,5.20
2023-04-30T16:21:50.793Z,5.50
2023-04-30T16:26:48.232Z,4.50
2023-04-30T16:31:47.382Z,5.70
2023-04-30T16:36:46.497Z,5.20
2023-04-30T16:41:46.779Z,4.30
2023-04-30T16:46:46.026Z,3.90
2023-04-30T16:51:44.632Z,4.10
2023-04-30T16:56:43.536Z,3.50
2023-04-30T17:01:45.973Z,4.00
2023-04-30T17:06:42.039Z,4.00
2023-04-30T17:11:41.275Z,12.70
2023-04-30T17:16:38.977Z,3.50
2023-04-30T17:21:41.745Z,3.80
2023-04-30T17:26:38.029Z,3.40
2023-04-30T17:31:38.383Z,3.20
2023-04-30T17:36:41.952Z,4.30
2023-04-30T17:41:37.205Z,4.30
2023-04-30T17:46:36.576Z,4.20
2023-04-30T17:51:36.697Z,105.90
2023-04-30T17:56:39.022Z,67.80
2023-04-30T18:01:34.113Z,60.70
2023-04-30T18:06:35.302Z,64.00
2023-04-30T18:11:32.382Z,132.80
2023-04-30T18:16:31.731Z,87.00
2023-04-30T18:21:30.830Z,190.40
2023-04-30T18:26:30.085Z,136.70
2023-04-30T18:31:30.772Z,106.70
2023-04-30T18:36:28.561Z,88.90
2023-04-30T18:41:27.877Z,75.20
2023-04-30T18:46:28.232Z,36.50
2023-04-30T18:51:27.501Z,46.80
2023-04-30T18:56:25.797Z,62.40
2023-04-30T19:01:26.156Z,94.90
2023-04-30T19:06:26.422Z,83.80
2023-04-30T19:11:24.615Z,66.90
2023-04-30T19:16:22.895Z,46.80
2023-04-30T19:21:22.042Z,32.50
2023-04-30T19:26:22.493Z,81.90
2023-04-30T19:31:21.055Z,83.90
2023-04-30T19:36:19.873Z,71.90
2023-04-30T19:41:20.490Z,64.40
2023-04-30T19:46:22.785Z,49.00
2023-04-30T19:51:17.937Z,106.10
2023-04-30T19:56:16.998Z,128.20
2023-04-30T20:01:16.692Z,79.60
2023-04-30T20:06:16.649Z,108.00
2023-04-30T20:11:15.087Z,135.60
2023-04-30T20:16:14.407Z,124.40
2023-04-30T20:21:13.368Z,86.40
2023-04-30T20:26:12.759Z,88.60
2023-04-30T20:31:11.874Z,86.40
2023-04-30T20:36:12.023Z,65.20
2023-04-30T20:41:10.330Z,60.40
2023-04-30T20:46:10.690Z,49.90
2023-04-30T20:51:09.770Z,42.80
2023-04-30T20:56:08.043Z,37.30
2023-04-30T21:01:07.397Z,31.30
2023-04-30T21:06:09.695Z,32.10
2023-04-30T21:11:06.736Z,26.40
2023-04-30T21:16:06.097Z,26.30
2023-04-30T21:21:05.441Z,23.70
2023-04-30T21:26:04.474Z,18.80
2023-04-30T21:31:03.770Z,18.50
2023-04-30T21:36:02.075Z,16.30
2023-04-30T21:41:01.376Z,13.80
2023-04-30T21:46:00.684Z,14.50
2023-04-30T21:51:00.935Z,12.30
2023-04-30T21:55:59.148Z,10.10
2023-04-30T22:00:58.407Z,35.90
2023-04-30T22:05:58.674Z,56.40
2023-04-30T22:10:56.861Z,56.40
2023-04-30T22:15:55.191Z,53.70
2023-04-30T22:20:55.456Z,62.00
2023-04-30T22:25:55.771Z,47.60
2023-04-30T22:30:55.053Z,139.90
2023-04-30T22:35:54.350Z,109.60
2023-04-30T22:40:52.736Z,93.20
2023-04-30T22:45:52.813Z,66.30
2023-04-30T22:50:51.054Z,80.70
2023-04-30T22:55:51.332Z,119.10
2023-04-30T23:00:50.611Z,140.40
2023-04-30T23:05:48.828Z,325.70
2023-04-30T23:10:48.115Z,136.00
2023-04-30T23:15:48.366Z,125.20
2023-04-30T23:20:47.637Z,313.10
2023-04-30T23:25:46.909Z,196.00
2023-04-30T23:30:45.165Z,212.00
2023-04-30T23:35:46.512Z,202.20
2023-04-30T23:40:44.722Z,193.50
2023-04-30T23:45:44.000Z,147.20
2023-04-30T23:50:41.273Z,185.90
2023-04-30T23:55:41.572Z,146.00
